createdAt,value
2023-02-02T00:01:25.281Z,0.21
2023-02-02T00:03:53.496Z,0.21
2023-02-02T00:06:24.080Z,0.26
2023-02-02T00:08:52.091Z,0.26
2023-02-02T00:11:20.219Z,0.17
2023-02-02T00:13:47.874Z,0.15
2023-02-02T00:16:36.042Z,0.17
2023-02-02T00:19:10.089Z,0.19
2023-02-02T00:21:38.341Z,0.18
2023-02-02T00:24:07.536Z,0.22
2023-02-02T00:26:36.180Z,0.20
2023-02-02T00:29:04.848Z,0.18
2023-02-02T00:31:33.801Z,0.30
2023-02-02T00:34:01.392Z,0.23
2023-02-02T00:36:29.832Z,0.34
2023-02-02T00:38:57.534Z,0.41
2023-02-02T00:41:25.025Z,0.43
2023-02-02T00:44:11.714Z,0.46
2023-02-02T00:46:41.639Z,0.42
2023-02-02T00:49:09.673Z,0.43
2023-02-02T00:51:38.400Z,0.40
2023-02-02T00:54:06.186Z,0.32
2023-02-02T00:56:33.669Z,0.33
2023-02-02T00:59:01.224Z,0.38
2023-02-02T01:01:29.093Z,0.39
2023-02-02T01:03:56.996Z,0.32
2023-02-02T01:06:24.970Z,0.37
2023-02-02T01:08:53.101Z,0.37
2023-02-02T01:11:20.806Z,0.39
2023-02-02T01:13:48.551Z,0.39
2023-02-02T01:16:16.351Z,0.46
2023-02-02T01:18:44.164Z,0.46
2023-02-02T01:21:12.799Z,0.48
2023-02-02T01:23:40.370Z,0.45
2023-02-02T01:26:10.138Z,0.43
2023-02-02T01:28:38.489Z,0.46
2023-02-02T01:31:18.058Z,0.43
2023-02-02T01:33:47.700Z,0.43
2023-02-02T01:36:18.985Z,0.43
2023-02-02T01:38:47.728Z,0.42
2023-02-02T01:41:24.259Z,0.45
2023-02-02T01:43:55.024Z,0.38
2023-02-02T01:46:28.626Z,0.36
2023-02-02T01:48:59.146Z,0.46
2023-02-02T01:51:40.889Z,0.37
2023-02-02T01:54:31.889Z,0.47
2023-02-02T01:57:05.223Z,0.44
2023-02-02T01:59:34.848Z,0.48
2023-02-02T02:02:03.827Z,0.36
2023-02-02T02:04:33.277Z,0.39
2023-02-02T02:07:02.980Z,0.32
2023-02-02T02:09:31.652Z,0.31
2023-02-02T02:11:59.774Z,0.37
2023-02-02T02:14:47.638Z,0.36
2023-02-02T02:17:32.059Z,0.37
2023-02-02T02:20:42.982Z,0.42
2023-02-02T02:23:55.349Z,0.36
2023-02-02T02:26:41.255Z,0.17
2023-02-02T02:29:37.215Z,0.27
2023-02-02T02:32:14.024Z,0.32
2023-02-02T02:35:06.176Z,0.37
2023-02-02T02:37:54.396Z,0.37
2023-02-02T02:40:47.584Z,0.38
2023-02-02T02:43:21.637Z,0.34
2023-02-02T02:45:50.705Z,0.39
2023-02-02T02:48:18.295Z,0.30
2023-02-02T02:50:48.289Z,0.33
2023-02-02T02:53:19.663Z,0.28
2023-02-02T02:56:01.739Z,0.32
2023-02-02T02:58:49.405Z,0.37
2023-02-02T03:01:40.314Z,0.35
2023-02-02T03:04:32.747Z,0.35
2023-02-02T03:07:35.719Z,0.39
2023-02-02T03:10:07.918Z,0.34
2023-02-02T03:12:45.114Z,0.31
2023-02-02T03:15:13.548Z,0.30
2023-02-02T03:17:43.253Z,0.31
2023-02-02T03:20:11.537Z,0.31
2023-02-02T03:22:40.099Z,0.37
2023-02-02T03:25:11.351Z,0.37
2023-02-02T03:27:40.057Z,0.42
2023-02-02T03:30:12.476Z,0.47
2023-02-02T03:32:40.654Z,0.47
2023-02-02T03:35:09.346Z,0.48
2023-02-02T03:37:36.944Z,0.48
2023-02-02T03:40:06.325Z,0.50
2023-02-02T03:42:33.911Z,0.61
2023-02-02T03:45:01.573Z,0.56
2023-02-02T03:47:30.261Z,0.63
2023-02-02T03:49:58.715Z,0.67
2023-02-02T03:52:26.611Z,0.66
2023-02-02T03:54:54.085Z,0.61
2023-02-02T03:57:21.685Z,0.67
2023-02-02T03:59:49.289Z,0.69
2023-02-02T04:02:16.865Z,0.82
2023-02-02T04:05:49.594Z,0.81
2023-02-02T04:08:18.847Z,0.82
2023-02-02T04:10:48.087Z,0.77
2023-02-02T04:13:17.014Z,0.77
2023-02-02T04:15:46.109Z,0.79
2023-02-02T04:18:15.306Z,0.76
2023-02-02T04:20:44.393Z,0.77
2023-02-02T04:23:13.774Z,0.75
2023-02-02T04:25:50.996Z,0.74
2023-02-02T04:28:20.817Z,0.77
2023-02-02T04:30:49.530Z,0.79
2023-02-02T04:33:21.552Z,0.79
2023-02-02T04:35:51.433Z,0.81
2023-02-02T04:38:20.823Z,0.67
2023-02-02T04:40:50.230Z,0.66
2023-02-02T04:43:21.780Z,0.66
2023-02-02T04:45:58.204Z,0.67
2023-02-02T04:48:27.130Z,0.77
2023-02-02T04:51:06.030Z,0.77
2023-02-02T04:53:35.265Z,0.78
2023-02-02T04:56:17.328Z,0.82
2023-02-02T04:58:47.388Z,0.80
2023-02-02T05:01:21.452Z,0.84
2023-02-02T05:03:51.406Z,0.79
2023-02-02T05:06:20.564Z,0.74
2023-02-02T05:08:49.553Z,0.77
2023-02-02T05:11:24.107Z,0.83
2023-02-02T05:13:55.319Z,0.91
2023-02-02T05:16:27.046Z,0.90
2023-02-02T05:19:00.099Z,0.85
2023-02-02T05:21:29.794Z,0.88
2023-02-02T05:23:59.895Z,0.90
2023-02-02T05:26:29.530Z,0.92
2023-02-02T05:28:58.844Z,0.88
2023-02-02T05:31:28.014Z,0.94
2023-02-02T05:33:57.129Z,0.89
2023-02-02T05:36:26.210Z,0.84
2023-02-02T05:38:55.562Z,0.91
2023-02-02T05:41:24.724Z,0.91
2023-02-02T05:43:53.664Z,0.92
2023-02-02T05:46:22.621Z,0.99
2023-02-02T05:48:51.589Z,1.12
2023-02-02T05:51:29.678Z,0.94
2023-02-02T05:54:00.885Z,0.84
2023-02-02T05:56:30.253Z,0.95
2023-02-02T05:59:00.721Z,0.98
2023-02-02T06:01:29.916Z,0.99
2023-02-02T06:03:59.169Z,1.05
2023-02-02T06:06:28.551Z,1.09
2023-02-02T06:08:57.707Z,1.08
2023-02-02T06:11:27.187Z,1.02
2023-02-02T06:13:56.489Z,0.97
2023-02-02T06:16:26.091Z,1.01
2023-02-02T06:18:55.490Z,0.99
2023-02-02T06:21:25.361Z,1.06
2023-02-02T06:23:54.288Z,1.07
2023-02-02T06:26:24.004Z,1.15
2023-02-02T06:28:54.945Z,1.07
2023-02-02T06:31:25.180Z,1.11
2023-02-02T06:33:57.330Z,1.11
2023-02-02T06:36:28.531Z,1.14
2023-02-02T06:38:59.091Z,1.28
2023-02-02T06:41:28.532Z,1.33
2023-02-02T06:43:57.763Z,1.34
2023-02-02T06:46:26.878Z,1.38
2023-02-02T06:48:56.450Z,1.35
2023-02-02T06:51:25.771Z,1.46
2023-02-02T06:53:56.476Z,1.44
2023-02-02T06:56:27.525Z,1.32
2023-02-02T06:58:56.929Z,1.39
2023-02-02T07:01:26.380Z,1.30
2023-02-02T07:03:56.332Z,1.39
2023-02-02T07:06:28.929Z,1.44
2023-02-02T07:09:01.729Z,1.30
2023-02-02T07:11:39.773Z,1.35
2023-02-02T07:14:15.579Z,1.54
2023-02-02T07:16:45.433Z,1.53
2023-02-02T07:19:14.825Z,1.44
2023-02-02T07:21:44.867Z,1.47
2023-02-02T07:24:14.392Z,1.43
2023-02-02T07:26:44.537Z,1.49
2023-02-02T07:29:15.069Z,1.51
2023-02-02T07:31:52.252Z,1.56
2023-02-02T07:34:22.587Z,1.69
2023-02-02T07:36:55.789Z,1.79
2023-02-02T07:39:28.391Z,1.70
2023-02-02T07:41:57.530Z,1.60
2023-02-02T07:44:35.269Z,1.67
2023-02-02T07:47:04.391Z,1.68
2023-02-02T07:49:33.965Z,1.74
2023-02-02T07:52:03.373Z,1.74
2023-02-02T07:54:32.838Z,1.80
2023-02-02T07:57:02.864Z,1.66
2023-02-02T07:59:32.549Z,1.63
2023-02-02T08:02:01.906Z,1.58
2023-02-02T08:04:34.825Z,1.66
2023-02-02T08:07:04.583Z,1.80
2023-02-02T08:09:34.223Z,1.81
2023-02-02T08:12:03.244Z,1.94
2023-02-02T08:14:33.035Z,1.92
2023-02-02T08:17:04.194Z,2.02
2023-02-02T08:19:38.351Z,2.00
2023-02-02T08:22:07.163Z,2.00
2023-02-02T08:24:40.948Z,2.04
2023-02-02T08:27:16.034Z,2.22
2023-02-02T08:29:46.659Z,2.26
2023-02-02T08:32:15.575Z,2.22
2023-02-02T08:34:45.911Z,2.25
2023-02-02T08:37:50.646Z,2.35
2023-02-02T08:40:21.382Z,2.53
2023-02-02T08:42:55.021Z,2.78
2023-02-02T08:46:01.759Z,2.90
2023-02-02T08:48:13.448Z,3.20
2023-02-02T08:50:42.592Z,3.24
2023-02-02T08:53:11.266Z,3.34
2023-02-02T08:55:40.347Z,3.53
2023-02-02T08:58:10.147Z,3.68
2023-02-02T09:00:37.852Z,3.71
2023-02-02T09:03:05.652Z,3.59
2023-02-02T09:05:35.836Z,3.36
2023-02-02T09:08:04.016Z,3.33
2023-02-02T09:10:32.280Z,3.29
2023-02-02T09:12:59.993Z,3.32
2023-02-02T09:15:27.695Z,3.33
2023-02-02T09:17:56.902Z,3.58
2023-02-02T09:20:24.569Z,3.62
2023-02-02T09:22:54.959Z,3.73
2023-02-02T09:25:22.595Z,3.62
2023-02-02T09:27:51.663Z,3.61
2023-02-02T09:30:19.580Z,3.72
2023-02-02T09:32:50.146Z,3.70
2023-02-02T09:35:18.203Z,3.71
2023-02-02T09:37:46.848Z,3.69
2023-02-02T09:40:19.141Z,3.68
2023-02-02T09:43:03.098Z,3.73
2023-02-02T09:46:01.652Z,3.70
2023-02-02T09:48:54.955Z,3.76
2023-02-02T09:51:26.067Z,3.93
2023-02-02T09:54:00.922Z,4.22
2023-02-02T09:56:41.283Z,4.43
2023-02-02T09:59:24.759Z,4.66
2023-02-02T10:01:56.327Z,4.74
2023-02-02T10:04:39.975Z,4.52
2023-02-02T10:07:15.769Z,4.01
2023-02-02T10:09:57.607Z,3.94
2023-02-02T10:12:41.027Z,4.29
2023-02-02T10:15:18.858Z,4.33
2023-02-02T10:17:55.121Z,4.42
2023-02-02T10:20:51.277Z,4.35
2023-02-02T10:23:26.613Z,4.08
2023-02-02T10:26:01.126Z,3.97
2023-02-02T10:28:49.206Z,3.99
2023-02-02T10:31:29.482Z,4.10
2023-02-02T10:34:21.919Z,4.01
2023-02-02T10:36:52.348Z,3.96
2023-02-02T10:39:31.402Z,4.12
2023-02-02T10:42:05.038Z,4.24
2023-02-02T10:44:50.667Z,4.07
2023-02-02T10:47:28.098Z,4.04
2023-02-02T10:50:18.032Z,4.34
2023-02-02T10:53:01.737Z,4.44
2023-02-02T10:56:07.091Z,4.47
2023-02-02T10:58:50.580Z,4.38
2023-02-02T11:01:19.315Z,4.15
2023-02-02T11:03:47.044Z,4.10
2023-02-02T11:06:34.348Z,4.05
2023-02-02T11:09:04.068Z,3.97
2023-02-02T11:11:34.616Z,3.91
2023-02-02T11:14:13.052Z,3.87
2023-02-02T11:16:44.436Z,3.96
2023-02-02T11:19:19.745Z,4.02
2023-02-02T11:21:54.235Z,4.17
2023-02-02T11:24:36.781Z,4.31
2023-02-02T11:27:31.576Z,4.29
2023-02-02T11:30:08.079Z,4.37
2023-02-02T11:32:37.829Z,4.66
2023-02-02T11:35:08.355Z,4.73
2023-02-02T11:37:51.810Z,4.89
2023-02-02T11:40:45.894Z,4.39
2023-02-02T11:43:34.741Z,4.18
2023-02-02T11:46:05.563Z,3.88
2023-02-02T11:48:39.522Z,3.88
2023-02-02T11:51:08.778Z,4.00
2023-02-02T11:53:39.114Z,4.11
2023-02-02T11:56:19.897Z,4.01
2023-02-02T11:58:51.380Z,4.02
2023-02-02T12:01:29.055Z,4.06
2023-02-02T12:04:02.152Z,4.41
2023-02-02T12:06:33.367Z,4.77
2023-02-02T12:09:07.544Z,4.58
2023-02-02T12:11:57.011Z,4.37
2023-02-02T12:14:41.569Z,4.25
2023-02-02T12:17:21.384Z,4.06
2023-02-02T12:19:49.054Z,4.03
2023-02-02T12:22:16.917Z,3.89
2023-02-02T12:24:50.713Z,4.06
2023-02-02T12:27:47.834Z,4.11
2023-02-02T12:30:28.677Z,4.20
2023-02-02T12:33:31.639Z,4.06
2023-02-02T12:36:06.089Z,3.98
2023-02-02T12:39:00.576Z,3.84
2023-02-02T12:41:28.240Z,3.86
2023-02-02T12:44:20.742Z,3.74
2023-02-02T12:46:54.700Z,3.66
2023-02-02T12:49:37.681Z,3.55
2023-02-02T12:52:26.315Z,3.63
2023-02-02T12:55:01.147Z,3.51
2023-02-02T12:57:43.872Z,3.54
2023-02-02T13:00:24.942Z,3.60
2023-02-02T13:03:31.553Z,3.65
2023-02-02T13:06:37.962Z,3.69
2023-02-02T13:09:12.325Z,3.62
2023-02-02T13:12:02.986Z,3.44
2023-02-02T13:14:36.890Z,3.37
2023-02-02T13:17:15.268Z,3.36
2023-02-02T13:19:58.135Z,3.42
2023-02-02T13:22:32.190Z,3.19
2023-02-02T13:25:02.872Z,3.29
2023-02-02T13:27:33.457Z,3.13
2023-02-02T13:30:17.915Z,3.16
2023-02-02T13:32:47.318Z,3.25
2023-02-02T13:35:27.595Z,3.35
2023-02-02T13:38:05.128Z,3.34
2023-02-02T13:40:38.394Z,3.37
2023-02-02T13:43:12.858Z,3.37
2023-02-02T13:45:44.340Z,3.38
2023-02-02T13:48:12.075Z,3.39
2023-02-02T13:50:51.395Z,3.33
2023-02-02T13:53:36.959Z,3.25
2023-02-02T13:56:28.494Z,3.26
2023-02-02T13:59:23.799Z,3.37
2023-02-02T14:01:53.487Z,3.38
2023-02-02T14:04:25.509Z,3.30
2023-02-02T14:06:59.128Z,3.19
2023-02-02T14:09:29.437Z,3.27
2023-02-02T14:12:09.871Z,3.31
2023-02-02T14:14:40.051Z,3.36
2023-02-02T14:17:16.532Z,3.37
2023-02-02T14:19:44.177Z,3.44
2023-02-02T14:22:14.560Z,3.37
2023-02-02T14:24:44.154Z,3.40
2023-02-02T14:27:12.276Z,3.40
2023-02-02T14:29:46.358Z,3.22
2023-02-02T14:32:29.291Z,3.16
2023-02-02T14:34:58.392Z,3.09
2023-02-02T14:37:29.101Z,3.07
2023-02-02T14:40:06.268Z,3.03
2023-02-02T14:43:26.011Z,3.00
2023-02-02T14:46:12.542Z,3.03
2023-02-02T14:48:47.312Z,2.99
2023-02-02T14:51:21.703Z,2.93
2023-02-02T14:54:01.621Z,2.86
2023-02-02T14:56:49.993Z,2.86
2023-02-02T14:59:23.079Z,2.89
2023-02-02T15:02:10.193Z,2.98
2023-02-02T15:04:38.299Z,2.94
2023-02-02T15:07:51.549Z,2.96
2023-02-02T15:10:52.069Z,2.92
2023-02-02T15:13:24.512Z,2.97
2023-02-02T15:16:04.912Z,3.01
2023-02-02T15:18:44.816Z,2.87
2023-02-02T15:21:17.183Z,2.81
2023-02-02T15:23:46.891Z,2.88
2023-02-02T15:26:31.504Z,2.87
2023-02-02T15:29:08.102Z,2.92
2023-02-02T15:31:46.355Z,2.84
2023-02-02T15:34:25.957Z,2.80
2023-02-02T15:36:57.693Z,2.66
2023-02-02T15:39:33.875Z,2.77
2023-02-02T15:42:23.718Z,2.81
2023-02-02T15:44:51.578Z,2.68
2023-02-02T15:47:24.473Z,2.65
2023-02-02T15:49:52.356Z,2.67
2023-02-02T15:52:27.229Z,2.65
2023-02-02T15:54:56.908Z,2.69
2023-02-02T15:57:33.540Z,2.61
2023-02-02T16:00:32.133Z,2.57
2023-02-02T16:03:19.062Z,2.64
2023-02-02T16:05:53.425Z,2.67
2023-02-02T16:08:28.347Z,2.68
2023-02-02T16:11:15.346Z,2.72
2023-02-02T16:14:02.437Z,2.74
2023-02-02T16:16:36.285Z,2.61
2023-02-02T16:19:15.986Z,2.65
2023-02-02T16:21:54.642Z,2.58
2023-02-02T16:24:26.207Z,2.58
2023-02-02T16:26:55.538Z,2.65
2023-02-02T16:29:24.142Z,2.64
2023-02-02T16:31:51.969Z,2.64
2023-02-02T16:34:40.122Z,2.67
2023-02-02T16:37:14.661Z,2.64
2023-02-02T16:39:43.052Z,2.64
2023-02-02T16:42:21.094Z,2.61
2023-02-02T16:44:49.169Z,2.58
2023-02-02T16:47:25.802Z,2.58
2023-02-02T16:50:19.420Z,2.67
2023-02-02T16:53:05.692Z,2.70
2023-02-02T16:55:49.135Z,2.65
2023-02-02T16:58:22.441Z,2.61
2023-02-02T17:01:14.952Z,2.47
2023-02-02T17:03:52.714Z,2.39
2023-02-02T17:06:46.251Z,2.35
2023-02-02T17:09:34.537Z,2.29
2023-02-02T17:12:35.671Z,2.30
2023-02-02T17:15:18.684Z,2.36
2023-02-02T17:17:49.456Z,2.28
2023-02-02T17:20:18.437Z,2.24
2023-02-02T17:23:05.418Z,2.18
2023-02-02T17:25:40.263Z,2.15
2023-02-02T17:28:12.581Z,2.21
2023-02-02T17:30:47.525Z,2.21
2023-02-02T17:33:18.054Z,2.19
2023-02-02T17:35:54.847Z,2.26
2023-02-02T17:38:24.895Z,2.23
2023-02-02T17:40:53.082Z,2.22
2023-02-02T17:43:21.028Z,2.22
2023-02-02T17:45:49.415Z,2.14
2023-02-02T17:48:17.577Z,2.14
2023-02-02T17:50:45.445Z,2.21
2023-02-02T17:53:15.814Z,2.20
2023-02-02T17:55:46.063Z,2.20
2023-02-02T17:58:17.238Z,2.24
2023-02-02T18:00:54.069Z,2.22
2023-02-02T18:03:37.431Z,2.27
2023-02-02T18:06:05.518Z,2.24
2023-02-02T18:08:34.023Z,2.23
2023-02-02T18:11:01.989Z,2.30
2023-02-02T18:13:30.047Z,2.33
2023-02-02T18:15:59.874Z,2.35
2023-02-02T18:18:29.837Z,2.44
2023-02-02T18:20:58.649Z,2.45
2023-02-02T18:23:26.263Z,2.41
2023-02-02T18:25:54.195Z,2.45
2023-02-02T18:28:22.077Z,2.51
2023-02-02T18:30:49.753Z,2.47
2023-02-02T18:33:19.854Z,2.56
2023-02-02T18:35:48.312Z,2.53
2023-02-02T18:38:16.295Z,2.50
2023-02-02T18:40:43.889Z,2.50
2023-02-02T18:43:11.737Z,2.58
2023-02-02T18:45:42.423Z,2.62
2023-02-02T18:48:10.363Z,2.64
2023-02-02T18:50:38.162Z,2.65
2023-02-02T18:53:06.605Z,2.67
2023-02-02T18:55:34.339Z,2.72
2023-02-02T18:58:02.599Z,2.73
2023-02-02T19:00:30.839Z,2.73
2023-02-02T19:02:58.446Z,2.71
2023-02-02T19:05:44.626Z,2.61
2023-02-02T19:08:12.266Z,2.60
2023-02-02T19:10:40.421Z,2.61
2023-02-02T19:13:18.316Z,2.65
2023-02-02T19:15:48.924Z,2.65
2023-02-02T19:18:21.217Z,2.60
2023-02-02T19:20:50.302Z,2.64
2023-02-02T19:23:25.689Z,2.67
2023-02-02T19:25:56.155Z,2.72
2023-02-02T19:28:29.120Z,2.78
2023-02-02T19:30:59.697Z,2.83
2023-02-02T19:33:33.372Z,2.82
2023-02-02T19:36:02.061Z,2.77
2023-02-02T19:38:30.844Z,2.80
2023-02-02T19:41:00.544Z,2.76
2023-02-02T19:43:29.279Z,2.73
2023-02-02T19:45:59.905Z,2.70
2023-02-02T19:48:36.036Z,2.67
2023-02-02T19:51:44.289Z,2.71
2023-02-02T19:54:36.825Z,2.79
2023-02-02T19:57:21.470Z,2.87
2023-02-02T19:59:50.990Z,2.86
2023-02-02T20:02:43.482Z,2.91
2023-02-02T20:05:10.968Z,2.93
2023-02-02T20:07:39.292Z,2.86
2023-02-02T20:10:29.122Z,2.72
2023-02-02T20:12:57.235Z,2.72
2023-02-02T20:15:25.884Z,2.73
2023-02-02T20:17:56.560Z,2.77
2023-02-02T20:20:29.907Z,2.66
2023-02-02T20:22:58.061Z,2.73
2023-02-02T20:25:26.159Z,2.68
2023-02-02T20:27:54.465Z,2.69
2023-02-02T20:30:22.310Z,2.71
2023-02-02T20:32:55.912Z,2.68
2023-02-02T20:35:32.709Z,2.61
2023-02-02T20:38:00.633Z,2.66
2023-02-02T20:40:30.074Z,2.64
2023-02-02T20:42:58.733Z,2.62
2023-02-02T20:45:29.659Z,2.61
2023-02-02T20:47:57.545Z,2.54
2023-02-02T20:50:25.509Z,2.44
2023-02-02T20:52:55.774Z,2.52
2023-02-02T20:55:24.949Z,2.50
2023-02-02T20:57:53.159Z,2.47
2023-02-02T21:00:24.079Z,2.49
2023-02-02T21:02:52.207Z,2.53
2023-02-02T21:05:20.152Z,2.45
2023-02-02T21:07:48.779Z,2.42
2023-02-02T21:10:16.414Z,2.40
2023-02-02T21:12:44.006Z,2.38
2023-02-02T21:15:11.635Z,2.37
2023-02-02T21:17:40.703Z,2.31
2023-02-02T21:20:10.164Z,2.31
2023-02-02T21:22:37.724Z,2.21
2023-02-02T21:25:05.770Z,2.27
2023-02-02T21:27:33.438Z,2.30
2023-02-02T21:30:01.119Z,2.31
2023-02-02T21:32:28.965Z,2.23
2023-02-02T21:34:56.572Z,2.23
2023-02-02T21:37:25.154Z,2.16
2023-02-02T21:39:58.136Z,2.11
2023-02-02T21:42:28.622Z,2.11
2023-02-02T21:44:58.496Z,2.07
2023-02-02T21:47:34.857Z,2.13
2023-02-02T21:50:16.046Z,2.16
2023-02-02T21:52:44.031Z,2.11
2023-02-02T21:55:37.341Z,2.10
2023-02-02T21:58:19.873Z,1.96
2023-02-02T22:00:48.622Z,1.92
2023-02-02T22:03:27.193Z,1.92
2023-02-02T22:06:12.043Z,1.89
2023-02-02T22:08:39.688Z,1.92
2023-02-02T22:11:23.933Z,1.91
2023-02-02T22:13:52.956Z,1.94
2023-02-02T22:16:21.056Z,1.94
2023-02-02T22:18:49.079Z,1.92
2023-02-02T22:21:20.830Z,1.90
2023-02-02T22:23:49.256Z,1.88
2023-02-02T22:26:29.385Z,1.92
2023-02-02T22:28:57.236Z,1.90
2023-02-02T22:31:25.961Z,1.86
2023-02-02T22:33:53.588Z,1.92
2023-02-02T22:36:21.182Z,1.92
2023-02-02T22:38:49.135Z,1.90
2023-02-02T22:41:16.707Z,1.93
2023-02-02T22:43:44.320Z,1.90
2023-02-02T22:46:12.031Z,1.93
2023-02-02T22:48:39.816Z,1.95
2023-02-02T22:51:07.480Z,2.00
2023-02-02T22:53:35.133Z,2.03
2023-02-02T22:56:02.713Z,2.01
2023-02-02T22:58:31.447Z,2.05
2023-02-02T23:00:59.110Z,2.00
2023-02-02T23:03:26.659Z,2.04
2023-02-02T23:05:54.316Z,2.01
2023-02-02T23:08:21.918Z,1.97
2023-02-02T23:11:09.336Z,2.05
2023-02-02T23:13:37.001Z,1.91
2023-02-02T23:16:05.002Z,1.95
2023-02-02T23:18:32.740Z,1.92
2023-02-02T23:21:00.533Z,2.00
2023-02-02T23:23:28.087Z,2.08
2023-02-02T23:25:55.729Z,1.98
2023-02-02T23:28:23.261Z,1.82
2023-02-02T23:30:51.643Z,1.83
2023-02-02T23:33:19.319Z,1.85
2023-02-02T23:35:46.985Z,1.76
2023-02-02T23:38:14.643Z,1.77
2023-02-02T23:40:42.218Z,1.79
2023-02-02T23:43:10.395Z,1.89
2023-02-02T23:45:39.060Z,1.97
2023-02-02T23:48:08.006Z,1.95
2023-02-02T23:50:40.254Z,1.95
2023-02-02T23:53:09.584Z,1.98
2023-02-02T23:55:37.792Z,2.07
2023-02-02T23:58:06.085Z,2.04
